createdAt,value
2023-04-01T00:00:39.247Z,100078.13
2023-04-01T00:03:09.955Z,100028.69
2023-04-01T00:05:42.535Z,100068.94
2023-04-01T00:08:09.824Z,100068.00
2023-04-01T00:10:58.985Z,100039.41
2023-04-01T00:13:28.384Z,100061.84
2023-04-01T00:15:56.716Z,100078.13
2023-04-01T00:18:33.294Z,100052.50
2023-04-01T00:21:02.640Z,99969.97
2023-04-01T00:23:29.298Z,100068.66
2023-04-01T00:25:56.534Z,99990.06
2023-04-01T00:28:33.071Z,100078.16
2023-04-01T00:31:00.020Z,100087.38
2023-04-01T00:33:26.694Z,100071.88
2023-04-01T00:35:53.359Z,100048.41
2023-04-01T00:38:25.644Z,100054.88
2023-04-01T00:40:59.372Z,99982.81
2023-04-01T00:43:27.115Z,99903.03
2023-04-01T00:45:53.765Z,100086.97
2023-04-01T00:48:35.125Z,100089.28
2023-04-01T00:51:12.590Z,100059.66
2023-04-01T00:53:42.920Z,100071.91
2023-04-01T00:56:35.171Z,100102.56
2023-04-01T00:59:12.071Z,100086.38
2023-04-01T01:01:39.081Z,100086.63
2023-04-01T01:07:26.222Z,100082.34
2023-04-01T01:10:00.305Z,100041.66
2023-04-01T01:12:40.253Z,100074.81
2023-04-01T01:15:39.544Z,99995.63
2023-04-01T01:18:11.345Z,100072.38
2023-04-01T01:21:02.409Z,100082.06
2023-04-01T01:24:06.072Z,100018.69
2023-04-01T01:27:07.310Z,100074.75
2023-04-01T01:29:57.715Z,99999.97
2023-04-01T01:32:52.613Z,100076.88
2023-04-01T01:35:32.177Z,100048.66
2023-04-01T01:38:03.457Z,100085.44
2023-04-01T01:40:32.997Z,100060.84
2023-04-01T01:43:12.670Z,99941.91
2023-04-01T01:45:49.754Z,100088.34
2023-04-01T01:48:18.131Z,100087.78
2023-04-01T01:50:47.026Z,100069.53
2023-04-01T01:53:22.938Z,100064.03
2023-04-01T01:55:49.824Z,100045.09
2023-04-01T01:58:44.344Z,100084.72
2023-04-01T02:01:17.338Z,100019.13
2023-04-01T02:03:51.709Z,100044.78
2023-04-01T02:06:26.385Z,100016.56
2023-04-01T02:09:02.354Z,100076.78
2023-04-01T02:11:45.231Z,100054.19
2023-04-01T02:14:29.986Z,100067.31
2023-04-01T02:17:12.214Z,100075.47
2023-04-01T02:19:58.734Z,99960.34
2023-04-01T02:22:35.478Z,100068.13
2023-04-01T02:25:21.861Z,100049.66
2023-04-01T02:27:59.356Z,100065.34
2023-04-01T02:30:30.260Z,100043.56
2023-04-01T02:33:03.550Z,100043.56
2023-04-01T02:35:40.616Z,100074.16
2023-04-01T02:38:08.047Z,99982.16
2023-04-01T02:40:47.786Z,100074.97
2023-04-01T02:43:15.790Z,100071.50
2023-04-01T02:45:42.587Z,100053.16
2023-04-01T02:48:15.274Z,100024.22
2023-04-01T02:51:02.680Z,100031.84
2023-04-01T02:53:38.036Z,100039.56
2023-04-01T02:56:07.605Z,99991.16
2023-04-01T02:58:37.420Z,100093.50
2023-04-01T03:01:05.157Z,100088.63
2023-04-01T03:03:32.441Z,100073.81
2023-04-01T03:06:01.285Z,100079.28
2023-04-01T03:08:28.131Z,100083.84
2023-04-01T03:10:54.846Z,100058.09
2023-04-01T03:13:24.121Z,100063.94
2023-04-01T03:15:50.850Z,100010.34
2023-04-01T03:18:20.637Z,100063.13
2023-04-01T03:21:00.729Z,99955.97
2023-04-01T03:23:28.505Z,100002.41
2023-04-01T03:26:06.217Z,99980.09
2023-04-01T03:28:33.007Z,100098.28
2023-04-01T03:31:00.143Z,100060.19
2023-04-01T03:33:38.021Z,100092.63
2023-04-01T03:36:23.870Z,100086.00
2023-04-01T03:38:51.094Z,100100.38
2023-04-01T03:41:18.709Z,100063.44
2023-04-01T03:43:45.842Z,100114.03
2023-04-01T03:46:15.210Z,100050.78
2023-04-01T03:48:42.618Z,100056.75
2023-04-01T03:51:09.853Z,100014.25
2023-04-01T03:53:40.379Z,99989.09
2023-04-01T03:56:08.356Z,100098.41
2023-04-01T03:58:36.055Z,100042.09
2023-04-01T04:01:15.749Z,100008.94
2023-04-01T04:03:42.770Z,100084.44
2023-04-01T04:06:12.849Z,100117.56
2023-04-01T04:08:48.588Z,100124.09
2023-04-01T04:11:15.694Z,100125.06
2023-04-01T04:13:42.987Z,100122.41
2023-04-01T04:16:13.077Z,100119.59
2023-04-01T04:18:39.841Z,100085.41
2023-04-01T04:21:06.762Z,100138.09
2023-04-01T04:23:39.467Z,100144.25
2023-04-01T04:26:11.026Z,100143.41
2023-04-01T04:28:37.944Z,100134.06
2023-04-01T04:31:17.037Z,100137.91
2023-04-01T04:33:46.464Z,100140.72
2023-04-01T04:36:22.180Z,100128.22
2023-04-01T04:38:56.779Z,100152.25
2023-04-01T04:41:24.915Z,100101.88
2023-04-01T04:43:56.555Z,100120.06
2023-04-01T04:46:25.068Z,100142.75
2023-04-01T04:48:55.019Z,100140.41
2023-04-01T04:51:22.374Z,100138.75
2023-04-01T04:53:51.490Z,100107.38
2023-04-01T04:56:21.435Z,100116.84
2023-04-01T04:58:48.421Z,100061.34
2023-04-01T05:01:21.665Z,100157.75
2023-04-01T05:03:49.160Z,100135.03
2023-04-01T05:06:17.744Z,100129.72
2023-04-01T05:08:53.421Z,100086.50
2023-04-01T05:11:28.267Z,100152.00
2023-04-01T05:13:56.745Z,100133.63
2023-04-01T05:16:26.462Z,100168.34
2023-04-01T05:18:53.152Z,100093.94
2023-04-01T05:21:19.801Z,100152.97
2023-04-01T05:23:48.716Z,100155.63
2023-04-01T05:26:18.313Z,100159.13
2023-04-01T05:28:46.821Z,100170.28
2023-04-01T05:31:15.784Z,100164.94
2023-04-01T05:33:51.799Z,100081.88
2023-04-01T05:36:18.959Z,100081.56
2023-04-01T05:38:47.109Z,100104.09
2023-04-01T05:41:21.160Z,99990.63
2023-04-01T05:43:52.423Z,100177.00
2023-04-01T05:46:19.660Z,100166.16
2023-04-01T05:48:47.019Z,100152.69
2023-04-01T05:51:15.766Z,99973.47
2023-04-01T05:53:43.158Z,100132.97
2023-04-01T05:56:10.810Z,100191.00
2023-04-01T05:58:39.300Z,100165.00
2023-04-01T06:01:16.489Z,100202.03
2023-04-01T06:03:43.927Z,100092.13
2023-04-01T06:06:28.329Z,100101.16
2023-04-01T06:09:03.308Z,100016.50
2023-04-01T06:11:45.866Z,100200.75
2023-04-01T06:14:36.966Z,100154.34
2023-04-01T06:17:46.781Z,100192.56
2023-04-01T06:20:40.358Z,100163.75
2023-04-01T06:23:33.319Z,100140.06
2023-04-01T06:26:29.708Z,100149.41
2023-04-01T06:29:22.126Z,100215.09
2023-04-01T06:32:06.144Z,100172.41
2023-04-01T06:34:49.507Z,100209.75
2023-04-01T06:37:17.857Z,100222.44
2023-04-01T06:40:14.746Z,100224.44
2023-04-01T06:43:03.632Z,100229.09
2023-04-01T06:45:59.490Z,100230.09
2023-04-01T06:48:38.513Z,100221.44
2023-04-01T06:51:25.256Z,100230.25
2023-04-01T06:54:12.901Z,100219.09
2023-04-01T06:56:47.868Z,100233.59
2023-04-01T06:59:29.058Z,100246.44
2023-04-01T07:02:10.910Z,100226.41
2023-04-01T07:04:43.384Z,100203.06
2023-04-01T07:07:25.689Z,100148.09
2023-04-01T07:10:02.239Z,100166.91
2023-04-01T07:12:40.021Z,100220.72
2023-04-01T07:15:42.836Z,100229.38
2023-04-01T07:18:20.438Z,100222.06
2023-04-01T07:20:48.145Z,100180.03
2023-04-01T07:23:33.302Z,100215.53
2023-04-01T07:26:26.429Z,100224.84
2023-04-01T07:28:54.719Z,100215.19
2023-04-01T07:31:43.618Z,100219.66
2023-04-01T07:34:25.696Z,100232.59
2023-04-01T07:37:11.536Z,100205.59
2023-04-01T07:40:01.206Z,100031.06
2023-04-01T07:42:58.007Z,100225.66
2023-04-01T07:45:35.763Z,100216.47
2023-04-01T07:48:46.953Z,100180.44
2023-04-01T07:51:30.461Z,100205.59
2023-04-01T07:54:07.571Z,100131.91
2023-04-01T07:57:07.360Z,100193.91
2023-04-01T07:59:59.886Z,100230.72
2023-04-01T08:03:02.097Z,100225.94
2023-04-01T08:06:03.485Z,100223.25
2023-04-01T08:08:56.305Z,100224.41
2023-04-01T08:12:02.000Z,100227.66
2023-04-01T08:15:02.321Z,100230.13
2023-04-01T08:18:15.917Z,100139.88
2023-04-01T08:20:53.920Z,100133.91
2023-04-01T08:23:28.513Z,100019.06
2023-04-01T08:26:07.415Z,100216.41
2023-04-01T08:28:38.397Z,100226.16
2023-04-01T08:31:27.760Z,100228.00
2023-04-01T08:33:59.913Z,100136.53
2023-04-01T08:36:45.621Z,100210.94
2023-04-01T08:39:19.443Z,100191.78
2023-04-01T08:41:54.822Z,100206.63
2023-04-01T08:44:49.201Z,100222.69
2023-04-01T08:47:54.367Z,100223.00
2023-04-01T08:50:46.931Z,100224.28
2023-04-01T08:53:20.804Z,100220.94
2023-04-01T08:56:18.537Z,100230.09
2023-04-01T08:58:52.871Z,100169.63
2023-04-01T09:01:44.815Z,100232.16
2023-04-01T09:04:36.633Z,100202.69
2023-04-01T09:07:38.499Z,100236.81
2023-04-01T09:10:23.794Z,100178.31
2023-04-01T09:13:08.945Z,100235.34
2023-04-01T09:15:55.056Z,100233.19
2023-04-01T09:18:43.298Z,100241.09
2023-04-01T09:21:16.449Z,100230.06
2023-04-01T09:23:54.368Z,100179.41
2023-04-01T09:26:59.706Z,100181.09
2023-04-01T09:29:45.042Z,100174.28
2023-04-01T09:32:49.505Z,100230.22
2023-04-01T09:35:49.427Z,100228.66
2023-04-01T09:38:42.393Z,100220.94
2023-04-01T09:41:44.241Z,100211.81
2023-04-01T09:44:48.105Z,100219.50
2023-04-01T09:47:46.389Z,100198.47
2023-04-01T09:50:21.224Z,100217.13
2023-04-01T09:53:06.309Z,100225.81
2023-04-01T09:56:15.230Z,100215.19
2023-04-01T09:59:29.991Z,100219.09
2023-04-01T10:02:24.789Z,100194.72
2023-04-01T10:05:25.504Z,100160.84
2023-04-01T10:08:07.658Z,100149.31
2023-04-01T10:11:11.689Z,100178.63
2023-04-01T10:14:12.547Z,100218.41
2023-04-01T10:17:10.880Z,100217.66
2023-04-01T10:20:10.270Z,100207.13
2023-04-01T10:23:03.251Z,100192.81
2023-04-01T10:25:59.301Z,100161.72
2023-04-01T10:28:56.569Z,100192.31
2023-04-01T10:32:03.649Z,100184.63
2023-04-01T10:34:55.870Z,100188.75
2023-04-01T10:37:33.863Z,100177.50
2023-04-01T10:40:19.730Z,100168.72
2023-04-01T10:43:10.885Z,100124.34
2023-04-01T10:46:23.149Z,100172.63
2023-04-01T10:49:14.777Z,100173.28
2023-04-01T10:51:56.145Z,100115.31
2023-04-01T10:54:25.822Z,100159.16
2023-04-01T10:56:58.881Z,100099.34
2023-04-01T11:00:10.287Z,100150.19
2023-04-01T11:03:01.710Z,100119.38
2023-04-01T11:06:13.185Z,100158.63
2023-04-01T11:09:07.287Z,100107.69
2023-04-01T11:11:55.374Z,100154.75
2023-04-01T11:14:40.892Z,100157.94
2023-04-01T11:17:48.262Z,100148.31
2023-04-01T11:20:22.337Z,100091.50
2023-04-01T11:23:18.817Z,100143.31
2023-04-01T11:26:24.917Z,99977.69
2023-04-01T11:29:30.041Z,100141.13
2023-04-01T11:32:18.104Z,100044.94
2023-04-01T11:35:28.462Z,100090.69
2023-04-01T11:38:16.796Z,100136.22
2023-04-01T11:41:26.321Z,100138.44
2023-04-01T11:44:23.530Z,100128.03
2023-04-01T11:47:14.695Z,99989.50
2023-04-01T11:49:56.509Z,100126.88
2023-04-01T11:52:50.613Z,100116.88
2023-04-01T11:55:53.868Z,100115.97
2023-04-01T11:58:53.494Z,100117.16
2023-04-01T12:01:48.613Z,100101.72
2023-04-01T12:04:46.723Z,100114.22
2023-04-01T12:07:48.282Z,100112.03
2023-04-01T12:10:48.795Z,100109.53
2023-04-01T12:13:38.190Z,100048.53
2023-04-01T12:16:51.663Z,100085.56
2023-04-01T12:19:33.414Z,100102.81
2023-04-01T12:22:28.274Z,100101.59
2023-04-01T12:25:02.245Z,100095.16
2023-04-01T12:28:03.710Z,100035.13
2023-04-01T12:31:02.549Z,100091.56
2023-04-01T12:33:29.112Z,100007.94
2023-04-01T12:36:19.887Z,100097.97
2023-04-01T12:39:15.477Z,100024.16
2023-04-01T12:42:08.350Z,100022.09
2023-04-01T12:44:52.585Z,100094.06
2023-04-01T12:47:41.132Z,100096.09
2023-04-01T12:50:46.269Z,100099.44
2023-04-01T12:53:16.646Z,99997.91
2023-04-01T12:55:45.644Z,100063.09
2023-04-01T12:58:54.361Z,100086.63
2023-04-01T13:01:43.219Z,100076.47
2023-04-01T13:04:30.556Z,100079.66
2023-04-01T13:07:03.386Z,100069.59
2023-04-01T13:09:39.788Z,100088.09
2023-04-01T13:12:15.876Z,100084.25
2023-04-01T13:15:11.889Z,100072.03
2023-04-01T13:17:51.747Z,100029.31
2023-04-01T13:20:59.906Z,100084.41
2023-04-01T13:23:32.512Z,100063.50
2023-04-01T13:26:15.327Z,100076.03
2023-04-01T13:28:46.558Z,100035.13
2023-04-01T13:31:43.810Z,100073.44
2023-04-01T13:34:37.929Z,100071.03
2023-04-01T13:37:28.325Z,99983.69
2023-04-01T13:40:32.105Z,99999.09
2023-04-01T13:46:07.086Z,100051.03
2023-04-01T13:48:56.454Z,100061.50
2023-04-01T13:51:33.397Z,99997.31
2023-04-01T13:54:31.707Z,100051.44
2023-04-01T13:57:20.229Z,100052.72
2023-04-01T14:00:15.753Z,100050.28
2023-04-01T14:03:08.655Z,100049.69
2023-04-01T14:06:11.584Z,100018.91
2023-04-01T14:09:08.796Z,100031.97
2023-04-01T14:11:39.657Z,100034.84
2023-04-01T14:14:34.302Z,100032.25
2023-04-01T14:17:37.146Z,100001.59
2023-04-01T14:20:22.770Z,100027.31
2023-04-01T14:23:23.015Z,100025.34
2023-04-01T14:26:28.665Z,100029.78
2023-04-01T14:29:08.589Z,100026.09
2023-04-01T14:31:54.798Z,100019.03
2023-04-01T14:34:57.738Z,99950.13
2023-04-01T14:38:16.641Z,100015.28
2023-04-01T14:40:55.446Z,100021.72
2023-04-01T14:43:43.751Z,100006.44
2023-04-01T14:46:41.212Z,100001.91
2023-04-01T14:49:18.400Z,100007.78
2023-04-01T14:51:49.319Z,99929.47
2023-04-01T14:54:31.386Z,99995.56
2023-04-01T14:57:45.489Z,99997.38
2023-04-01T15:00:39.497Z,99989.69
2023-04-01T15:03:29.411Z,99993.72
2023-04-01T15:06:15.934Z,99879.72
2023-04-01T15:09:16.048Z,99985.63
2023-04-01T15:12:07.885Z,99924.72
2023-04-01T15:14:56.304Z,99990.28
2023-04-01T15:17:41.941Z,99889.84
2023-04-01T15:20:27.325Z,99984.66
2023-04-01T15:23:18.278Z,99914.28
2023-04-01T15:26:34.156Z,99984.47
2023-04-01T15:29:28.770Z,99985.03
2023-04-01T15:32:14.138Z,99941.56
2023-04-01T15:34:51.549Z,99970.72
2023-04-01T15:37:39.690Z,99980.03
2023-04-01T15:40:30.906Z,99955.06
2023-04-01T15:43:19.051Z,99874.47
2023-04-01T15:46:16.785Z,99983.91
2023-04-01T15:49:11.312Z,99927.94
2023-04-01T15:52:35.531Z,99972.53
2023-04-01T15:55:18.791Z,99937.31
2023-04-01T15:58:13.576Z,99977.88
2023-04-01T16:01:00.827Z,99932.50
2023-04-01T16:04:00.558Z,99980.75
2023-04-01T16:07:03.745Z,99983.63
2023-04-01T16:09:35.102Z,99985.97
2023-04-01T16:12:16.227Z,99987.44
2023-04-01T16:15:13.355Z,99936.47
2023-04-01T16:18:05.882Z,99936.69
2023-04-01T16:20:51.177Z,99979.28
2023-04-01T16:23:56.001Z,99997.31
2023-04-01T16:26:29.347Z,99990.03
2023-04-01T16:29:27.604Z,100003.41
2023-04-01T16:32:20.222Z,99909.03
2023-04-01T16:35:19.721Z,99999.44
2023-04-01T16:37:53.774Z,100001.28
2023-04-01T16:40:51.316Z,100002.28
2023-04-01T16:43:37.799Z,100009.13
2023-04-01T16:46:27.902Z,99981.34
2023-04-01T16:49:37.320Z,99960.03
2023-04-01T16:52:15.577Z,99936.16
2023-04-01T16:54:52.354Z,99888.09
2023-04-01T16:57:26.171Z,99945.63
2023-04-01T17:03:11.652Z,100012.19
2023-04-01T17:06:09.901Z,99983.34
2023-04-01T17:08:56.036Z,100002.59
2023-04-01T17:11:42.767Z,99967.00
2023-04-01T17:14:27.522Z,100015.66
2023-04-01T17:17:04.244Z,99995.41
2023-04-01T17:20:10.486Z,100025.63
2023-04-01T17:22:55.815Z,99998.94
2023-04-01T17:26:03.002Z,100020.66
2023-04-01T17:29:07.738Z,100022.31
2023-04-01T17:32:20.026Z,100023.97
2023-04-01T17:35:17.576Z,100037.25
2023-04-01T17:38:22.311Z,99994.38
2023-04-01T17:41:04.335Z,100034.53
2023-04-01T17:43:43.676Z,99840.13
2023-04-01T17:47:01.003Z,100016.91
2023-04-01T17:49:32.431Z,100037.84
2023-04-01T17:52:33.399Z,100001.56
2023-04-01T17:55:00.023Z,100045.00
2023-04-01T18:01:17.479Z,100052.44
2023-04-01T18:04:21.637Z,100014.31
2023-04-01T18:07:21.817Z,100035.38
2023-04-01T18:10:17.809Z,100049.06
2023-04-01T18:13:19.740Z,99970.09
2023-04-01T18:16:24.067Z,100048.22
2023-04-01T18:19:06.832Z,100040.03
2023-04-01T18:21:54.754Z,100015.38
2023-04-01T18:24:43.207Z,100049.34
2023-04-01T18:28:10.317Z,100048.09
2023-04-01T18:30:46.274Z,100045.50
2023-04-01T18:33:33.994Z,100050.06
2023-04-01T18:36:36.000Z,100054.84
2023-04-01T18:42:46.448Z,100050.06
2023-04-01T18:45:50.204Z,100050.22
2023-04-01T18:48:48.914Z,100067.28
2023-04-01T18:51:47.682Z,99891.31
2023-04-01T18:54:44.605Z,99893.09
2023-04-01T19:00:46.053Z,100040.94
2023-04-01T19:03:27.329Z,99893.50
2023-04-01T19:06:01.383Z,99995.38
2023-04-01T19:11:58.719Z,100093.16
2023-04-01T19:15:07.665Z,100087.44
2023-04-01T19:18:34.601Z,100034.06
2023-04-01T19:21:44.796Z,100087.53
2023-04-01T19:24:43.101Z,100095.59
2023-04-01T19:27:37.729Z,100091.91
2023-04-01T19:30:33.428Z,100092.78
2023-04-01T19:34:07.568Z,100001.66
2023-04-01T19:37:00.434Z,100102.44
2023-04-01T19:39:46.530Z,100101.94
2023-04-01T19:42:19.541Z,99859.81
2023-04-01T19:45:07.658Z,100059.72
2023-04-01T19:48:13.858Z,100103.66
2023-04-01T19:50:57.467Z,100038.94
2023-04-01T19:54:24.289Z,99989.88
2023-04-01T19:57:35.504Z,100066.13
2023-04-01T20:00:18.129Z,100097.78
2023-04-01T20:06:50.797Z,99976.47
2023-04-01T20:10:05.012Z,100096.41
2023-04-01T20:13:04.238Z,100096.00
2023-04-01T20:15:46.260Z,100090.72
2023-04-01T20:18:47.629Z,100023.19
2023-04-01T20:21:34.597Z,100095.03
2023-04-01T20:24:23.507Z,100083.13
2023-04-01T20:27:00.234Z,99995.59
2023-04-01T20:30:08.879Z,100097.16
2023-04-01T20:32:41.220Z,100083.13
2023-04-01T20:37:59.112Z,100092.16
2023-04-01T20:40:54.689Z,100094.50
2023-04-01T20:43:34.921Z,100089.72
2023-04-01T20:46:09.425Z,100087.78
2023-04-01T20:48:51.165Z,100091.41
2023-04-01T20:51:27.588Z,100066.16
2023-04-01T20:54:18.837Z,100099.16
2023-04-01T20:57:01.798Z,99995.78
2023-04-01T20:59:58.092Z,100099.06
2023-04-01T21:02:44.088Z,100105.44
2023-04-01T21:05:47.357Z,100112.63
2023-04-01T21:08:43.500Z,100106.72
2023-04-01T21:11:39.769Z,100085.13
2023-04-01T21:14:36.691Z,100114.31
2023-04-01T21:17:23.609Z,99950.25
2023-04-01T21:20:28.475Z,100115.31
2023-04-01T21:23:02.451Z,100062.19
2023-04-01T21:25:54.935Z,100113.03
2023-04-01T21:29:09.744Z,100124.41
2023-04-01T21:32:27.855Z,100101.69
2023-04-01T21:35:12.810Z,100047.16
2023-04-01T21:37:48.714Z,100112.69
2023-04-01T21:40:43.357Z,100114.63
2023-04-01T21:43:25.724Z,100107.16
2023-04-01T21:45:58.672Z,100095.13
2023-04-01T21:48:34.144Z,100049.25
2023-04-01T21:51:40.771Z,100076.56
2023-04-01T21:54:44.666Z,100121.53
2023-04-01T21:57:54.543Z,100117.28
2023-04-01T22:00:37.621Z,100114.06
2023-04-01T22:03:44.273Z,100085.63
2023-04-01T22:06:23.364Z,100042.34
2023-04-01T22:09:14.572Z,100105.75
2023-04-01T22:12:11.131Z,100100.69
2023-04-01T22:17:53.168Z,100092.66
2023-04-01T22:20:44.520Z,100052.59
2023-04-01T22:23:52.985Z,99983.28
2023-04-01T22:26:33.284Z,100121.94
2023-04-01T22:29:26.159Z,100111.50
2023-04-01T22:32:58.716Z,100113.16
2023-04-01T22:35:39.635Z,100058.78
2023-04-01T22:38:19.623Z,100114.84
2023-04-01T22:41:01.620Z,100085.81
2023-04-01T22:43:39.516Z,100078.44
2023-04-01T22:46:15.257Z,100109.66
2023-04-01T22:48:55.998Z,100100.06
2023-04-01T22:51:41.590Z,99931.13
2023-04-01T22:54:44.063Z,100112.88
2023-04-01T22:57:39.571Z,100100.91
2023-04-01T23:00:29.228Z,100096.09
2023-04-01T23:03:46.668Z,100114.34
2023-04-01T23:06:30.506Z,100095.34
2023-04-01T23:09:17.768Z,100109.19
2023-04-01T23:12:06.295Z,99966.25
2023-04-01T23:14:41.770Z,100065.22
2023-04-01T23:17:23.848Z,100113.34
2023-04-01T23:20:03.394Z,100107.25
2023-04-01T23:23:00.519Z,100101.06
2023-04-01T23:25:57.538Z,100110.56
2023-04-01T23:28:48.893Z,100115.47
2023-04-01T23:31:35.792Z,99990.16
2023-04-01T23:34:28.500Z,100040.16
2023-04-01T23:37:00.594Z,100111.88
2023-04-01T23:39:40.102Z,100056.75
2023-04-01T23:42:24.374Z,100104.19
2023-04-01T23:44:56.580Z,99930.69
2023-04-01T23:47:39.112Z,100033.78
2023-04-01T23:50:13.084Z,100102.06
2023-04-01T23:53:25.398Z,100109.91
2023-04-01T23:55:56.707Z,100103.91
2023-04-01T23:58:29.280Z,100083.69
